AirNav   Pilot Hours Calculator
 
 1472 users online  

24FL Garcon Field Airport
Milton, Florida, USA

GOING TO MILTON?


FAA INFORMATION EFFECTIVE 07 NOVEMBER 2019

Location

FAA Identifier: 24FL
Lat/Long: 30-29-24.0000N 087-05-09.0000W
30-29.400000N 087-05.150000W
30.4900000,-87.0858333
(estimated)
Elevation: 16 ft. / 5 m (estimated)
Variation: 01E (1985)
From city: 9 miles S of MILTON, FL
Time zone: UTC -6 (UTC -5 during Daylight Saving Time)
Zip code: 32583

Airport Operations

Airport use: Private use. Permission required prior to landing
Activation date: 09/1989
Control tower: no
ARTCC: JACKSONVILLE CENTER
FSS: GAINESVILLE FLIGHT SERVICE STATION
Attendance: UNATNDD
Wind indicator: yes
Segmented circle: no

Airport Communications

WX ASOS at PNS (5 nm W): PHONE 850-436-4799
WX ASOS at NDZ (13 nm N): PHONE 850-623-7210
WX ASOS at NSE (14 nm N): PHONE 850-623-7241

Nearby radio navigation aids

VOR radial/distance  VOR name  Freq  Var
NUNr084/(13.0)SAUFLEY VOR108.8001E
CEWr223/29.1CRESTVIEW VORTAC115.9003E

 
NDB name  Hdg/Dist  Freq  Var  ID
PICKENS058/5.732602WPKZ .--. -.- --..

Airport Services

Runway Information

Runway 9/27

Dimensions: 3300 x 50 ft. / 1006 x 15 m
Surface: turf
Runway edge markings: 09/27 MARKED WITH FIVE GALLON BUCKETS.
RUNWAY 9  RUNWAY 27
Traffic pattern: leftright
Displaced threshold: 600 ft.500 ft.
Obstructions: 26 ft. pline, 50 ft. from runway10 ft. trees, 100 ft. from runway

Airport Ownership and Management from official FAA records

Ownership: Privately-owned
Owner: EDWIN HENRY
1637 PEARSON ROAD
MILTON, FL 32583
Phone (850) 910-3560
Manager: EDWIN HENRY
1637 PEARSON ROAD
MILTON, FL 32583
Phone (850) 910-3560

Airport Operational Statistics

Aircraft based on the field: 2
Single engine airplanes: 2
    

Additional Remarks

FOR CD CTC PENSACOLA APCH AT 850-266-6884 OR 850-266-6885.

Instrument Procedures

There are no published instrument procedures at 24FL.

Some nearby airports with instrument procedures:

KPNS - Pensacola International Airport (5 nm W)
2R4 - Peter Prince Field Airport (10 nm NE)
KNDZ - Whiting Field Naval Air Station South (13 nm N)
KNSE - Whiting Field Naval Air Station North (14 nm N)
KNPA - Pensacola Naval Air Station/Forrest Sherman Field (15 nm SW)
 
Loc | Ops | Rwys | IFR | FBO | Links
Com | Nav | Svcs | Stats | Notes

Continental Motors
AirBoss

 
Area around 24FL (Garcon Field Airport)
 
Road maps at: MapQuest Bing Google
 
Aerial photo
No photo
 
Sectional chart

 
Airport distance calculator
Flying to Garcon Field Airport? Find the distance to fly.

From to 24FL

Sunrise and sunset
Times for 18-Nov-2019
 Local
(UTC-6)
 Zulu
(UTC)
Morning civil twilight05:5211:52
Sunrise06:1812:18
Sunset16:4922:49
Evening civil twilight17:1523:15

Current date and time
Zulu (UTC)  18-Nov-2019 16:42:59
Local (UTC-6)  18-Nov-2019 10:42:59
 
METAR
KPNS 
5nm W 
181553Z 36008KT 10SM CLR 18/03 A2993 RMK AO2 SLP137 T01780033 $
KNDZ 
13nm N 
181556Z 31006KT 10SM SCT250 24/02 A2993 RMK AO2 SLP122 T02440022 $
KNSE 
14nm N 
181556Z VRB05KT 10SM SCT250 16/02 A2993 RMK AO2 SLP123 T01610017 $
KNPA 
15nm SW 
181556Z 32005KT 10SM BKN250 17/04 A2994 RMK AO2 SLP139 T01670044
TAF
KPNS 
5nm W 
181120Z 1812/1912 33006KT P6SM SKC FM181500 33006KT P6SM FEW250 FM190300 32004KT P6SM SCT250
KNSE 
14nm N 
1815/1915 32006KT 9999 FEW250 QNH2991INS FM181800 30007KT 9999 SCT250 QNH2983INS FM190100 31003KT 9999 BKN250 QNH2988INS T19/1820Z T05/1911Z FN20071
KNPA 
15nm SW 
1815/1915 33007KT 9999 SCT250 QNH2989INS FM181800 33007KT 9999 BKN250 QNH2985INS T18/1820Z T06/1912Z FN20033
NOTAMs
Click for the latest NOTAMs
NOTAMs are issued by the DoD/FAA and will open in a separate window not controlled by AirNav.

 

 
 

Would you like to see your business listed on this page?

 If your business provides an interesting product or service to pilots, flight crews, aircraft, or users of the Garcon Field Airport, you should consider listing it here.  To start the listing process, click on the button below
 
Add a business
 

Other Pages about Garcon Field Airport

Update a link
 
Copyright © AirNav, LLC. All rights reserved. Privacy Policy  Contact